createdAt,value
2018-07-21T00:02:10.707Z,2.93
2018-07-21T00:04:39.815Z,2.57
2018-07-21T00:07:08.871Z,2.80
2018-07-21T00:09:37.948Z,2.87
2018-07-21T00:12:07.055Z,2.80
2018-07-21T00:14:36.112Z,3.00
2018-07-21T00:17:04.963Z,3.30
2018-07-21T00:19:34.119Z,2.70
2018-07-21T00:22:03.211Z,2.77
2018-07-21T00:24:32.335Z,3.13
2018-07-21T00:27:06.323Z,3.33
2018-07-21T00:29:35.457Z,3.20
2018-07-21T00:32:04.567Z,2.83
2018-07-21T00:34:33.686Z,2.87
2018-07-21T00:37:02.568Z,3.00
2018-07-21T00:39:31.574Z,3.17
2018-07-21T00:42:00.699Z,2.63
2018-07-21T00:44:29.734Z,2.90
2018-07-21T00:46:58.868Z,3.50
2018-07-21T00:49:28.029Z,2.73
2018-07-21T00:51:57.155Z,3.00
2018-07-21T00:54:26.205Z,3.23
2018-07-21T00:56:55.317Z,3.33
2018-07-21T00:59:25.292Z,3.57
2018-07-21T01:01:54.359Z,3.20
2018-07-21T01:04:23.507Z,2.70
2018-07-21T01:06:52.582Z,2.70
2018-07-21T01:09:21.614Z,2.87
2018-07-21T01:11:50.740Z,2.63
2018-07-21T01:14:19.814Z,2.83
2018-07-21T01:16:48.655Z,3.27
2018-07-21T01:19:17.690Z,3.70
2018-07-21T01:21:46.513Z,3.73
2018-07-21T01:24:15.245Z,3.90
2018-07-21T01:26:44.246Z,3.37
2018-07-21T01:29:13.298Z,3.20
2018-07-21T01:31:42.392Z,3.10
2018-07-21T01:34:11.394Z,4.43
2018-07-21T01:36:40.642Z,3.03
2018-07-21T01:39:10.863Z,3.30
2018-07-21T01:41:40.087Z,3.40
2018-07-21T01:44:09.154Z,3.50
2018-07-21T01:46:38.047Z,2.90
2018-07-21T01:49:06.976Z,2.90
2018-07-21T01:51:36.260Z,2.20
2018-07-21T01:54:05.316Z,2.67
2018-07-21T01:56:34.409Z,2.60
2018-07-21T01:59:03.195Z,3.10
2018-07-21T02:01:32.172Z,2.83
2018-07-21T02:04:01.298Z,2.70
2018-07-21T02:06:30.144Z,3.00
2018-07-21T02:08:59.096Z,2.73
2018-07-21T02:11:28.154Z,2.90
2018-07-21T02:13:57.240Z,2.90
2018-07-21T02:16:26.367Z,3.43
2018-07-21T02:18:55.170Z,3.27
2018-07-21T02:21:24.140Z,2.90
2018-07-21T02:23:52.983Z,3.07
2018-07-21T02:26:21.667Z,3.30
2018-07-21T02:28:50.883Z,3.10
2018-07-21T02:31:20.106Z,2.70
2018-07-21T02:33:49.242Z,3.00
2018-07-21T02:36:18.310Z,3.67
2018-07-21T02:38:47.111Z,3.13
2018-07-21T02:41:15.815Z,3.37
2018-07-21T02:43:44.786Z,3.43
2018-07-21T02:46:14.803Z,3.40
2018-07-21T02:48:43.947Z,3.53
2018-07-21T02:51:13.001Z,3.00
2018-07-21T02:53:42.068Z,3.00
2018-07-21T02:56:10.948Z,3.00
2018-07-21T02:58:39.886Z,3.13
2018-07-21T03:01:08.929Z,3.20
2018-07-21T03:03:37.966Z,3.23
2018-07-21T03:06:06.712Z,3.30
2018-07-21T03:08:35.823Z,3.30
2018-07-21T03:11:04.598Z,3.00
2018-07-21T03:13:33.552Z,3.30
2018-07-21T03:16:02.618Z,3.17
2018-07-21T03:18:31.665Z,3.60
2018-07-21T03:21:00.743Z,3.07
2018-07-21T03:23:29.829Z,2.97
2018-07-21T03:25:58.984Z,3.20
2018-07-21T03:28:28.067Z,3.50
2018-07-21T03:30:57.221Z,3.03
2018-07-21T03:33:26.276Z,3.37
2018-07-21T03:35:55.439Z,3.43
2018-07-21T03:38:24.556Z,3.60
2018-07-21T03:40:53.677Z,3.80
2018-07-21T03:43:22.735Z,3.07
2018-07-21T03:45:51.641Z,3.43
2018-07-21T03:48:20.286Z,3.50
2018-07-21T03:50:49.296Z,3.17
2018-07-21T03:53:18.204Z,3.50
2018-07-21T03:55:46.881Z,3.43
2018-07-21T03:58:15.891Z,3.10
2018-07-21T04:00:45.275Z,3.37
2018-07-21T04:03:14.413Z,3.03
2018-07-21T04:05:43.486Z,4.87
2018-07-21T04:08:12.606Z,3.90
2018-07-21T04:10:41.759Z,3.90
2018-07-21T04:13:10.814Z,3.47
2018-07-21T04:15:39.888Z,3.20
2018-07-21T04:18:09.003Z,3.10
2018-07-21T04:20:38.107Z,2.90
2018-07-21T04:23:07.223Z,2.60
2018-07-21T04:25:36.084Z,2.90
2018-07-21T04:28:05.064Z,2.73
2018-07-21T04:30:34.214Z,2.50
2018-07-21T04:33:03.366Z,2.53
2018-07-21T04:35:32.546Z,2.80
2018-07-21T04:38:01.628Z,2.70
2018-07-21T04:40:30.669Z,2.90
2018-07-21T04:42:59.923Z,2.80
2018-07-21T04:45:28.942Z,2.67
2018-07-21T04:47:58.139Z,3.07
2018-07-21T04:50:27.258Z,2.53
2018-07-21T04:52:56.354Z,3.00
2018-07-21T04:55:25.446Z,2.77
2018-07-21T04:57:54.897Z,2.70
2018-07-21T05:00:23.905Z,2.70
2018-07-21T05:02:53.018Z,2.80
2018-07-21T05:05:22.116Z,2.60
2018-07-21T05:07:51.208Z,2.50
2018-07-21T05:10:20.303Z,3.03
2018-07-21T05:12:49.476Z,2.40
2018-07-21T05:15:18.571Z,2.83
2018-07-21T05:17:47.666Z,2.80
2018-07-21T05:20:16.749Z,2.30
2018-07-21T05:22:46.753Z,2.40
2018-07-21T05:25:15.833Z,2.43
2018-07-21T05:27:44.952Z,2.77
2018-07-21T05:30:14.010Z,2.40
2018-07-21T05:32:43.634Z,2.37
2018-07-21T05:35:12.342Z,2.50
2018-07-21T05:37:41.264Z,2.70
2018-07-21T05:40:10.383Z,2.90
2018-07-21T05:42:39.213Z,2.60
2018-07-21T05:45:07.991Z,2.40
2018-07-21T05:47:36.641Z,2.47
2018-07-21T05:50:05.883Z,2.70
2018-07-21T05:52:35.002Z,2.40
2018-07-21T05:55:04.107Z,2.73
2018-07-21T05:57:33.191Z,2.90
2018-07-21T06:00:02.320Z,2.30
2018-07-21T06:02:31.150Z,2.43
2018-07-21T06:05:00.122Z,2.90
2018-07-21T06:07:29.261Z,3.03
2018-07-21T06:09:58.315Z,2.80
2018-07-21T06:12:27.381Z,2.90
2018-07-21T06:14:56.458Z,2.67
2018-07-21T06:17:25.531Z,2.50
2018-07-21T06:19:54.626Z,2.93
2018-07-21T06:22:23.691Z,2.27
2018-07-21T06:24:52.749Z,2.57
2018-07-21T06:27:21.843Z,2.50
2018-07-21T06:29:51.042Z,2.43
2018-07-21T06:32:20.120Z,2.53
2018-07-21T06:34:49.271Z,2.60
2018-07-21T06:37:18.350Z,3.07
2018-07-21T06:39:47.404Z,2.50
2018-07-21T06:42:16.530Z,2.70
2018-07-21T06:44:45.330Z,2.77
2018-07-21T06:47:14.699Z,2.30
2018-07-21T06:49:43.695Z,2.33
2018-07-21T06:52:12.778Z,2.40
2018-07-21T06:54:41.926Z,3.13
2018-07-21T06:57:11.183Z,2.50
2018-07-21T06:59:40.364Z,3.27
2018-07-21T07:02:09.671Z,3.40
2018-07-21T07:04:38.823Z,3.33
2018-07-21T07:07:07.947Z,2.70
2018-07-21T07:09:37.043Z,2.40
2018-07-21T07:12:06.133Z,3.20
2018-07-21T07:14:35.271Z,3.00
2018-07-21T07:17:04.094Z,2.63
2018-07-21T07:19:32.831Z,2.70
2018-07-21T07:22:01.864Z,2.70
2018-07-21T07:24:31.187Z,2.93
2018-07-21T07:27:00.310Z,3.10
2018-07-21T07:29:29.515Z,2.57
2018-07-21T07:31:58.677Z,2.70
2018-07-21T07:34:27.929Z,2.70
2018-07-21T07:36:57.439Z,2.57
2018-07-21T07:39:26.401Z,2.57
2018-07-21T07:41:55.519Z,2.80
2018-07-21T07:44:24.373Z,3.03
2018-07-21T07:46:53.321Z,2.60
2018-07-21T07:49:22.446Z,2.90
2018-07-21T07:51:52.694Z,2.93
2018-07-21T07:54:21.920Z,3.17
2018-07-21T07:56:51.229Z,3.03
2018-07-21T07:59:20.183Z,2.80
2018-07-21T08:01:49.026Z,4.17
2018-07-21T08:04:17.757Z,4.37
2018-07-21T08:06:47.102Z,4.33
2018-07-21T08:09:16.219Z,3.10
2018-07-21T08:11:45.418Z,4.77
2018-07-21T08:14:14.657Z,3.10
2018-07-21T08:16:43.940Z,3.83
2018-07-21T08:19:13.139Z,3.00
2018-07-21T08:21:42.262Z,3.67
2018-07-21T08:24:11.391Z,2.90
2018-07-21T08:26:40.519Z,2.93
2018-07-21T08:29:09.631Z,3.57
2018-07-21T08:31:38.814Z,3.37
2018-07-21T08:34:08.809Z,3.30
2018-07-21T08:36:37.980Z,3.30
2018-07-21T08:39:08.853Z,3.10
2018-07-21T08:41:37.962Z,3.50
2018-07-21T08:44:07.431Z,2.90
2018-07-21T08:46:36.791Z,3.10
2018-07-21T08:49:05.919Z,3.50
2018-07-21T08:51:34.884Z,2.87
2018-07-21T08:54:03.716Z,3.27
2018-07-21T08:56:32.677Z,3.10
2018-07-21T08:59:02.055Z,3.20
2018-07-21T09:01:30.867Z,3.13
2018-07-21T09:03:59.909Z,3.20
2018-07-21T09:06:29.022Z,3.20
2018-07-21T09:08:58.249Z,3.40
2018-07-21T09:11:27.331Z,3.50
2018-07-21T09:13:56.402Z,3.37
2018-07-21T09:16:25.475Z,3.40
2018-07-21T09:18:55.151Z,3.60
2018-07-21T09:21:24.396Z,3.30
2018-07-21T09:23:53.503Z,3.17
2018-07-21T09:26:23.429Z,3.67
2018-07-21T09:28:52.659Z,3.60
2018-07-21T09:31:21.780Z,4.10
2018-07-21T09:33:50.910Z,3.70
2018-07-21T09:36:20.126Z,4.07
2018-07-21T09:38:49.283Z,3.60
2018-07-21T09:41:18.387Z,3.50
2018-07-21T09:43:47.566Z,4.17
2018-07-21T09:46:16.686Z,3.83
2018-07-21T09:48:46.858Z,3.90
2018-07-21T09:51:15.947Z,3.67
2018-07-21T09:53:45.055Z,3.43
2018-07-21T09:56:14.118Z,4.03
2018-07-21T09:58:43.047Z,3.73
2018-07-21T10:01:12.074Z,3.53
2018-07-21T10:03:41.207Z,3.90
2018-07-21T10:06:10.609Z,3.80
2018-07-21T10:08:39.666Z,3.50
2018-07-21T10:11:08.927Z,4.33
2018-07-21T10:13:38.046Z,4.47
2018-07-21T10:16:07.165Z,4.03
2018-07-21T10:18:36.255Z,4.33
2018-07-21T10:21:05.428Z,3.97
2018-07-21T10:23:34.562Z,4.77
2018-07-21T10:26:08.862Z,3.97
2018-07-21T10:28:43.288Z,3.90
2018-07-21T10:31:12.385Z,4.03
2018-07-21T10:33:41.550Z,4.13
2018-07-21T10:36:10.692Z,3.97
2018-07-21T10:38:39.758Z,4.33
2018-07-21T10:41:08.922Z,4.13
2018-07-21T10:43:38.081Z,3.87
2018-07-21T10:46:07.190Z,4.00
2018-07-21T10:48:36.286Z,3.77
2018-07-21T10:51:05.391Z,4.13
2018-07-21T10:53:34.530Z,4.00
2018-07-21T10:56:03.712Z,4.77
2018-07-21T10:58:32.819Z,4.17
2018-07-21T11:01:01.961Z,4.27
2018-07-21T11:03:31.667Z,4.00
2018-07-21T11:06:00.718Z,4.30
2018-07-21T11:08:32.001Z,4.00
2018-07-21T11:11:01.059Z,4.30
2018-07-21T11:13:30.319Z,3.90
2018-07-21T11:15:59.496Z,3.80
2018-07-21T11:18:28.982Z,4.47
2018-07-21T11:20:57.930Z,4.53
2018-07-21T11:23:27.515Z,4.30
2018-07-21T11:25:56.602Z,4.67
2018-07-21T11:28:28.364Z,4.67
2018-07-21T11:30:57.512Z,3.87
2018-07-21T11:33:26.646Z,4.37
2018-07-21T11:35:55.882Z,4.77
2018-07-21T11:38:25.014Z,4.97
2018-07-21T11:40:53.859Z,4.40
2018-07-21T11:43:22.933Z,4.60
2018-07-21T11:45:52.075Z,4.47
2018-07-21T11:48:21.174Z,4.50
2018-07-21T11:50:50.280Z,4.80
2018-07-21T11:53:19.511Z,4.07
2018-07-21T11:55:48.658Z,4.30
2018-07-21T11:58:17.792Z,4.60
2018-07-21T12:00:46.982Z,4.10
2018-07-21T12:03:16.213Z,4.70
2018-07-21T12:05:45.344Z,4.23
2018-07-21T12:08:14.478Z,4.27
2018-07-21T12:10:43.581Z,4.60
2018-07-21T12:13:12.708Z,4.20
2018-07-21T12:15:41.908Z,4.20
2018-07-21T12:18:10.976Z,4.80
2018-07-21T12:20:40.043Z,4.17
2018-07-21T12:23:08.855Z,4.30
2018-07-21T12:25:37.594Z,4.37
2018-07-21T12:28:07.234Z,5.10
2018-07-21T12:30:36.275Z,4.43
2018-07-21T12:33:05.387Z,4.07
2018-07-21T12:35:34.579Z,4.50
2018-07-21T12:38:03.936Z,4.03
2018-07-21T12:40:33.039Z,4.00
2018-07-21T12:43:03.169Z,4.13
2018-07-21T12:45:32.248Z,4.27
2018-07-21T12:48:01.402Z,4.00
2018-07-21T12:50:30.268Z,4.50
2018-07-21T12:52:59.196Z,4.83
2018-07-21T12:55:28.033Z,4.60
2018-07-21T12:57:56.997Z,4.57
2018-07-21T13:00:26.079Z,4.43
2018-07-21T13:02:55.223Z,5.10
2018-07-21T13:05:24.290Z,4.57
2018-07-21T13:07:53.369Z,5.17
2018-07-21T13:10:22.486Z,5.07
2018-07-21T13:12:51.591Z,4.53
2018-07-21T13:15:20.651Z,4.57
2018-07-21T13:17:49.721Z,4.63
2018-07-21T13:20:18.532Z,4.33
2018-07-21T13:22:47.548Z,4.90
2018-07-21T13:25:16.693Z,4.83
2018-07-21T13:27:45.933Z,4.97
2018-07-21T13:30:15.074Z,5.07
2018-07-21T13:32:44.198Z,4.73
2018-07-21T13:35:13.113Z,5.00
2018-07-21T13:37:42.077Z,4.80
2018-07-21T13:40:11.176Z,4.83
2018-07-21T13:42:40.045Z,4.47
2018-07-21T13:45:08.983Z,4.53
2018-07-21T13:47:38.158Z,5.23
2018-07-21T13:50:06.974Z,5.00
2018-07-21T13:52:35.924Z,5.30
2018-07-21T13:55:06.215Z,4.77
2018-07-21T13:57:35.288Z,4.83
2018-07-21T14:00:07.392Z,5.30
2018-07-21T14:02:36.442Z,5.40
2018-07-21T14:05:05.954Z,5.50
2018-07-21T14:07:35.141Z,5.30
2018-07-21T14:10:04.477Z,4.70
2018-07-21T14:12:33.577Z,5.47
2018-07-21T14:15:02.667Z,5.20
2018-07-21T14:17:31.798Z,5.20
2018-07-21T14:20:00.739Z,5.00
2018-07-21T14:22:29.728Z,5.67
2018-07-21T14:24:58.793Z,5.10
2018-07-21T14:27:27.906Z,5.03
2018-07-21T14:29:57.096Z,4.87
2018-07-21T14:32:26.227Z,4.90
2018-07-21T14:34:55.369Z,5.30
2018-07-21T14:37:24.535Z,5.20
2018-07-21T14:39:53.598Z,5.00
2018-07-21T14:42:22.661Z,5.97
2018-07-21T14:44:51.745Z,6.10
2018-07-21T14:47:20.810Z,5.53
2018-07-21T14:49:49.995Z,5.30
2018-07-21T14:52:19.023Z,5.23
2018-07-21T14:54:48.201Z,5.80
2018-07-21T14:57:17.407Z,4.87
2018-07-21T14:59:46.221Z,4.63
2018-07-21T15:02:14.930Z,5.10
2018-07-21T15:04:43.943Z,4.97
2018-07-21T15:07:12.965Z,5.30
2018-07-21T15:09:41.849Z,5.00
2018-07-21T15:12:10.908Z,5.00
2018-07-21T15:14:40.137Z,5.57
2018-07-21T15:17:09.249Z,4.87
2018-07-21T15:19:38.045Z,5.20
2018-07-21T15:22:07.161Z,4.63
2018-07-21T15:24:36.306Z,5.27
2018-07-21T15:27:05.446Z,5.00
2018-07-21T15:29:34.666Z,5.50
2018-07-21T15:32:03.744Z,5.30
2018-07-21T15:34:32.829Z,5.77
2018-07-21T15:37:02.090Z,5.10
2018-07-21T15:39:31.201Z,5.30
2018-07-21T15:42:00.038Z,5.40
2018-07-21T15:44:29.155Z,5.60
2018-07-21T15:46:58.222Z,5.80
2018-07-21T15:49:28.294Z,5.33
2018-07-21T15:51:57.483Z,5.70
2018-07-21T15:54:26.599Z,5.40
2018-07-21T15:56:55.463Z,5.13
2018-07-21T15:59:24.404Z,5.60
2018-07-21T16:01:53.506Z,5.47
2018-07-21T16:04:22.602Z,5.40
2018-07-21T16:06:51.759Z,5.30
2018-07-21T16:09:20.580Z,5.20
2018-07-21T16:11:49.608Z,5.53
2018-07-21T16:14:18.726Z,5.13
2018-07-21T16:16:47.538Z,5.07
2018-07-21T16:19:16.558Z,5.23
2018-07-21T16:21:45.612Z,4.97
2018-07-21T16:24:14.573Z,5.80
2018-07-21T16:26:43.484Z,5.50
2018-07-21T16:29:12.501Z,5.40
2018-07-21T16:31:41.583Z,5.40
2018-07-21T16:34:10.412Z,5.70
2018-07-21T16:36:39.396Z,5.60
2018-07-21T16:39:10.130Z,5.57
2018-07-21T16:41:39.188Z,5.03
2018-07-21T16:44:08.280Z,5.40
2018-07-21T16:46:37.082Z,5.60
2018-07-21T16:49:06.127Z,5.17
2018-07-21T16:51:35.174Z,5.27
2018-07-21T16:54:04.273Z,5.20
2018-07-21T16:56:33.399Z,4.97
2018-07-21T16:59:02.603Z,4.93
2018-07-21T17:01:31.907Z,4.97
2018-07-21T17:04:02.196Z,4.60
2018-07-21T17:06:32.829Z,6.40
2018-07-21T17:09:03.116Z,6.50
2018-07-21T17:11:33.034Z,5.43
2018-07-21T17:16:36.878Z,5.70
2018-07-21T17:19:06.695Z,5.47
2018-07-21T17:21:36.792Z,5.40
2018-07-21T17:24:06.975Z,5.00
2018-07-21T17:26:36.110Z,5.57
2018-07-21T17:29:06.425Z,5.07
2018-07-21T17:31:36.002Z,5.63
2018-07-21T17:34:05.123Z,5.77
2018-07-21T17:36:34.245Z,5.70
2018-07-21T17:39:14.744Z,5.83
2018-07-21T17:41:45.484Z,4.90
2018-07-21T17:44:15.070Z,4.33
2018-07-21T17:46:45.315Z,4.57
2018-07-21T17:49:15.685Z,5.03
2018-07-21T17:51:45.821Z,5.20
2018-07-21T17:54:15.011Z,5.47
2018-07-21T17:56:44.070Z,5.13
2018-07-21T17:59:12.972Z,4.80
2018-07-21T18:01:42.651Z,5.50
2018-07-21T18:04:13.622Z,5.70
2018-07-21T18:06:45.297Z,4.93
2018-07-21T18:09:14.503Z,4.90
2018-07-21T18:12:37.630Z,5.20
2018-07-21T18:15:12.127Z,4.83
2018-07-21T18:17:44.492Z,5.40
2018-07-21T18:20:15.367Z,5.97
2018-07-21T18:22:52.035Z,5.17
2018-07-21T18:25:23.333Z,5.30
2018-07-21T18:27:55.042Z,5.70
2018-07-21T18:30:25.280Z,5.67
2018-07-21T18:32:54.260Z,5.67
2018-07-21T18:35:26.211Z,5.37
2018-07-21T18:38:00.605Z,5.43
2018-07-21T18:40:32.512Z,4.97
2018-07-21T18:43:03.932Z,4.90
2018-07-21T18:45:38.103Z,5.23
2018-07-21T18:48:08.398Z,6.30
2018-07-21T18:50:39.740Z,6.07
2018-07-21T18:53:09.657Z,6.40
2018-07-21T18:55:39.164Z,6.13
2018-07-21T18:58:27.047Z,5.27
2018-07-21T19:01:02.978Z,7.40
2018-07-21T19:03:35.526Z,6.50
2018-07-21T19:06:10.503Z,5.63
2018-07-21T19:09:13.579Z,5.70
2018-07-21T19:11:53.840Z,5.87
2018-07-21T19:17:10.015Z,5.20
2018-07-21T19:19:44.504Z,6.20
2018-07-21T19:22:14.688Z,6.40
2018-07-21T19:24:44.412Z,6.87
2018-07-21T19:27:20.256Z,6.50
2018-07-21T19:29:49.874Z,6.20
2018-07-21T19:32:25.256Z,7.53
2018-07-21T19:34:54.490Z,6.17
2018-07-21T19:37:56.355Z,5.80
2018-07-21T19:40:26.554Z,6.10
2018-07-21T19:42:57.386Z,6.83
2018-07-21T19:45:27.326Z,6.53
2018-07-21T19:47:56.946Z,6.43
2018-07-21T19:51:14.670Z,6.13
2018-07-21T19:53:44.238Z,6.37
2018-07-21T19:56:16.892Z,6.27
2018-07-21T19:58:49.881Z,6.50
2018-07-21T20:01:23.479Z,6.30
2018-07-21T20:03:55.464Z,6.40
2018-07-21T20:06:31.230Z,6.87
2018-07-21T20:09:04.118Z,6.57
2018-07-21T20:11:34.327Z,6.37
2018-07-21T20:14:03.561Z,6.50
2018-07-21T20:16:39.082Z,6.13
2018-07-21T20:19:13.791Z,5.93
2018-07-21T20:21:47.083Z,5.87
2018-07-21T20:24:17.297Z,6.57
2018-07-21T20:27:01.272Z,7.30
2018-07-21T20:29:33.917Z,6.67
2018-07-21T20:32:07.919Z,5.83
2018-07-21T20:34:36.835Z,6.53
2018-07-21T20:37:17.446Z,6.30
2018-07-21T20:39:49.511Z,6.40
2018-07-21T20:42:21.098Z,7.30
2018-07-21T20:44:51.466Z,6.43
2018-07-21T20:47:24.022Z,6.60
2018-07-21T20:49:54.974Z,7.43
2018-07-21T20:52:24.157Z,6.63
2018-07-21T20:58:25.943Z,7.47
2018-07-21T21:01:01.948Z,6.37
2018-07-21T21:03:34.565Z,6.40
2018-07-21T21:06:10.174Z,5.83
2018-07-21T21:11:24.294Z,6.90
2018-07-21T21:14:06.693Z,6.27
2018-07-21T21:16:39.537Z,7.90
2018-07-21T21:19:08.673Z,6.33
2018-07-21T21:21:42.196Z,7.40
2018-07-21T21:24:12.812Z,7.00
2018-07-21T21:26:51.180Z,6.90
2018-07-21T21:32:01.630Z,6.57
2018-07-21T21:34:33.850Z,6.00
2018-07-21T21:37:08.482Z,5.80
2018-07-21T21:39:41.668Z,5.90
2018-07-21T21:43:19.581Z,5.80
2018-07-21T21:45:59.878Z,6.23
2018-07-21T21:48:33.347Z,6.27
2018-07-21T21:51:05.878Z,6.00
2018-07-21T21:53:37.279Z,7.00
2018-07-21T21:56:11.757Z,7.00
2018-07-21T21:58:44.940Z,5.90
2018-07-21T22:01:17.464Z,6.20
2018-07-21T22:03:46.538Z,6.13
2018-07-21T22:06:16.007Z,6.90
2018-07-21T22:08:45.839Z,6.13
2018-07-21T22:11:14.914Z,5.87
2018-07-21T22:13:43.988Z,6.13
2018-07-21T22:16:13.225Z,6.20
2018-07-21T22:18:42.066Z,7.17
2018-07-21T22:21:11.184Z,7.13
2018-07-21T22:23:40.942Z,6.10
2018-07-21T22:26:10.044Z,6.13
2018-07-21T22:28:39.123Z,8.33
2018-07-21T22:31:08.262Z,6.10
2018-07-21T22:33:37.418Z,5.87
2018-07-21T22:36:06.547Z,7.57
2018-07-21T22:38:36.270Z,7.53
2018-07-21T22:41:05.521Z,6.13
2018-07-21T22:43:34.603Z,7.13
2018-07-21T22:46:04.099Z,6.03
2018-07-21T22:48:34.073Z,6.40
2018-07-21T22:51:03.278Z,6.70
2018-07-21T22:53:33.302Z,6.43
2018-07-21T22:56:02.602Z,6.93
2018-07-21T22:58:32.142Z,6.13
2018-07-21T23:01:01.283Z,6.67
2018-07-21T23:03:30.358Z,6.47
2018-07-21T23:05:59.496Z,5.63
2018-07-21T23:08:28.622Z,6.53
2018-07-21T23:10:57.780Z,6.40
2018-07-21T23:13:26.860Z,6.40
2018-07-21T23:15:55.905Z,5.77
2018-07-21T23:18:25.785Z,5.43
2018-07-21T23:20:54.920Z,6.70
2018-07-21T23:23:24.032Z,6.20
2018-07-21T23:25:53.339Z,6.30
2018-07-21T23:28:23.155Z,6.53
2018-07-21T23:30:52.245Z,6.80
2018-07-21T23:33:21.295Z,6.27
2018-07-21T23:35:50.363Z,6.30
2018-07-21T23:38:19.486Z,6.17
2018-07-21T23:40:48.375Z,6.20
2018-07-21T23:43:17.394Z,6.03
2018-07-21T23:45:46.541Z,6.30
2018-07-21T23:48:15.558Z,6.30
2018-07-21T23:50:44.410Z,7.13
2018-07-21T23:53:13.414Z,6.30
2018-07-21T23:55:42.442Z,6.43
2018-07-21T23:58:11.309Z,6.73
